PATA/TAL METAR and TAF weather

Enter ICAO airport designator
Station Type Date Time Source
PATA METAR 2022/05/26 03:52 UTC NOAA

PATA 260352Z 26008KT 10SM FEW090 BKN180 18/02 A2977 RMK AO2 SLP082 T01780017


Station Type Date Time Source
PATA Decoded METAR 2022/05/26 03:52 UTC NOAA

TANANA CALHOUN MEMORIAL AIRPORT , AK, United States (PATA) 65-10N 152-06W 67M
May 25, 2022 - 11:52 PM EDT / 2022.05.26 0352 UTC
Wind: from the W (260 degrees) at 9 MPH (8 KT):0
Visibility: 10 mile(s):0
Sky conditions: mostly cloudy
Temperature: 64.0 F (17.8 C)
Dew Point: 35.1 F (1.7 C)
Relative Humidity: 33%
Pressure (altimeter): 29.77 in. Hg (1008 hPa)
ob: PATA 260352Z 26008KT 10SM FEW090 BKN180 18/02 A2977 RMK AO2 SLP082 T01780017
cycle: 4

Station Type Date Time Source
PATA TAF 2022/05/25 18:42 UTC NOAA

PATA 251739Z 2518/2618 VRB04KT P6SM FEW100 BKN200
FM252100 28010KT P6SM SCT080 BKN200
FM260800 VRB03KT P6SM SCT250

Example: see airport list